Anaktuvuk, Alaska
Current Conditions -  °F | °C
As of 2:36 PM on Monday 20 Oct 2014 (Local Time) from PAKP Reporting Station
Overcast Overcast  
Wind Chill:   Ceiling: 7000
Heat Index: 10°   Visibility: 10mi
Dew Point:   Wind: 7mph
Humidity: 73%   Direction: 10°N
Pressure: 29.34"   Gusts: NA
Location:  68.565°N, 152.085°W
Report Text: PAKP 202236Z AUTO 01006KT 10SM OVC070 M12/M16 A2934 RMK AO1
Loading
Personal Weather Stations






























Interactive Weather Map
Tropical Storm Tracking
New forecast layout! Learn more

10-Day Weather Forecast

Advertisements
Track Severe Weather on mobile